Time;durP1;ratioP1;P1;durP2;ratioP2;P2;SDS_P1;SDS_P2;PMS_P1;PMS_P2;Temp;Humidity;BMP_temperature;BMP_pressure;BME280_temperature;BME280_humidity;BME280_pressure;Samples;Min_cycle;Max_cycle;Signal;HPM_P1;HPM_P2
2023/01/12 00:01:34;;;;;;;6.30;1.40;;;;;;;4.25;100.00;98269.16;15285592;19;20018;-74
2023/01/12 00:07:03;;;;;;;5.40;1.48;;;;;;;4.44;100.00;98250.69;15281705;19;20034;-75
2023/01/12 00:12:27;;;;;;;5.35;1.50;;;;;;;4.69;100.00;98238.00;15281835;19;20038;-75
2023/01/12 00:17:52;;;;;;;3.58;1.15;;;;;;;4.75;100.00;98233.97;15280113;19;20547;-74
2023/01/12 00:23:20;;;;;;;3.85;1.20;;;;;;;4.86;100.00;98233.91;15277342;19;20014;-75
2023/01/12 00:28:46;;;;;;;4.43;1.40;;;;;;;4.96;100.00;98222.44;15280003;19;20101;-74
2023/01/12 00:34:10;;;;;;;4.90;1.25;;;;;;;5.06;100.00;98221.50;15280723;19;20006;-75
2023/01/12 00:39:40;;;;;;;5.75;1.60;;;;;;;5.01;100.00;98210.38;15281246;19;20027;-75
2023/01/12 00:45:25;;;;;;;5.35;1.60;;;;;;;5.00;100.00;98216.72;15285433;19;20094;-75
2023/01/12 00:50:51;;;;;;;5.93;1.40;;;;;;;5.00;100.00;98224.72;15289349;19;20029;-75
2023/01/12 00:56:18;;;;;;;8.80;1.52;;;;;;;5.09;100.00;98233.78;15290502;19;20010;-75
2023/01/12 01:01:49;;;;;;;6.80;1.48;;;;;;;5.12;100.00;98222.81;15290557;19;20085;-75
2023/01/12 01:07:17;;;;;;;4.93;1.30;;;;;;;5.22;100.00;98217.53;15290248;19;20014;-75
2023/01/12 01:12:45;;;;;;;4.53;1.40;;;;;;;5.26;100.00;98229.66;15289823;19;20022;-75
2023/01/12 01:18:11;;;;;;;5.03;1.50;;;;;;;5.37;100.00;98210.00;15292220;19;20026;-75
2023/01/12 01:23:37;;;;;;;6.03;1.58;;;;;;;5.43;100.00;98198.78;15289938;19;20362;-75
2023/01/12 01:29:05;;;;;;;4.47;1.10;;;;;;;5.45;100.00;98172.81;15290320;19;20014;-76
2023/01/12 01:34:29;;;;;;;7.45;1.48;;;;;;;5.48;100.00;98180.53;15291875;19;20477;-74
2023/01/12 01:39:55;;;;;;;5.68;1.35;;;;;;;5.45;100.00;98188.81;15293295;19;20038;-75
2023/01/12 01:45:22;;;;;;;5.25;1.40;;;;;;;5.54;100.00;98163.09;15288265;19;20010;-74
2023/01/12 01:50:56;;;;;;;5.15;1.52;;;;;;;5.61;100.00;98163.41;15289127;19;20010;-75
2023/01/12 01:56:27;;;;;;;4.60;1.48;;;;;;;5.62;100.00;98139.25;15280365;19;20349;-74
2023/01/12 02:02:02;;;;;;;5.83;1.60;;;;;;;5.76;100.00;98132.66;15287457;19;20018;-75
2023/01/12 02:07:27;;;;;;;7.97;1.55;;;;;;;5.93;100.00;98125.78;15287782;19;20042;-75
2023/01/12 02:18:40;;;;;;;5.80;1.30;;;;;;;6.12;100.00;98108.06;15289857;19;20021;-76
2023/01/12 02:24:33;;;;;;;5.47;1.40;;;;;;;6.17;100.00;98100.47;15291374;19;20476;-75
2023/01/12 02:30:30;;;;;;;5.57;1.50;;;;;;;6.13;100.00;98091.91;15275724;19;20018;-76
2023/01/12 02:36:03;;;;;;;6.18;1.40;;;;;;;6.17;100.00;98084.44;15285468;19;20025;-76
2023/01/12 02:47:34;;;;;;;;;;;;;;;6.23;100.00;98067.84;15283215;19;20014;-76
2023/01/12 02:53:06;;;;;;;4.35;1.40;;;;;;;6.25;100.00;98075.69;15320953;19;19942;-78
2023/01/12 02:58:42;;;;;;;5.38;1.33;;;;;;;6.26;100.00;98051.47;15305435;19;20018;-78
2023/01/12 03:04:10;;;;;;;7.15;1.50;;;;;;;6.26;100.00;98061.34;15293528;19;20497;-77
2023/01/12 03:09:42;;;;;;;3.45;1.15;;;;;;;6.31;100.00;98061.75;15283818;19;20019;-76
2023/01/12 03:15:11;;;;;;;6.38;1.30;;;;;;;6.36;100.00;98051.47;15283964;19;20018;-76
2023/01/12 03:20:38;;;;;;;4.63;1.35;;;;;;;6.44;100.00;98064.97;15284029;19;20384;-77
2023/01/12 03:26:09;;;;;;;4.78;1.30;;;;;;;6.44;100.00;98048.06;15275058;19;20083;-78
2023/01/12 03:31:35;;;;;;;5.43;1.30;;;;;;;6.51;100.00;98053.69;15270635;19;20381;-77
2023/01/12 03:37:08;;;;;;;3.40;1.17;;;;;;;6.53;100.00;98065.06;15265399;19;20045;-77
2023/01/12 03:42:42;;;;;;;6.50;1.50;;;;;;;6.55;100.00;98052.41;15280544;19;20039;-77
2023/01/12 03:48:15;;;;;;;5.72;1.48;;;;;;;6.59;100.00;98037.75;15278355;19;20074;-78
2023/01/12 03:53:41;;;;;;;6.60;1.50;;;;;;;6.61;100.00;98050.00;15285802;19;20021;-76
2023/01/12 03:59:10;;;;;;;7.05;1.65;;;;;;;6.61;100.00;98057.19;15279312;19;20528;-77
2023/01/12 04:04:34;;;;;;;5.28;1.50;;;;;;;6.65;100.00;98033.66;15275740;19;20010;-76
2023/01/12 04:09:59;;;;;;;6.45;1.60;;;;;;;6.61;100.00;98022.41;15279672;19;20022;-76
2023/01/12 04:15:26;;;;;;;8.32;1.40;;;;;;;6.59;100.00;98013.66;15280582;19;20035;-76
2023/01/12 04:20:51;;;;;;;5.72;1.35;;;;;;;6.58;100.00;98014.66;15275763;19;20533;-75
2023/01/12 04:26:16;;;;;;;4.50;1.27;;;;;;;6.57;100.00;98015.63;15278649;19;20021;-76
2023/01/12 04:31:44;;;;;;;4.28;1.30;;;;;;;6.54;100.00;98026.63;15278578;19;20029;-76
2023/01/12 04:37:09;;;;;;;4.07;1.20;;;;;;;6.57;100.00;98015.63;15271022;19;20006;-75
2023/01/12 04:48:18;;;;;;;6.35;1.30;;;;;;;6.53;100.00;98022.25;15278634;19;20044;-77
2023/01/12 04:53:43;;;;;;;4.47;1.10;;;;;;;6.48;100.00;98020.88;15280439;19;20015;-75
2023/01/12 04:59:09;;;;;;;3.65;1.20;;;;;;;6.51;100.00;98016.22;15278000;19;20017;-77
2023/01/12 05:04:37;;;;;;;4.00;1.00;;;;;;;6.47;100.00;98016.50;15277680;19;20010;-75
2023/01/12 10:25:42;;;;;;;0.80;0.38;;;;;;;8.12;100.00;97781.38;15300019;19;20014;-59
2023/01/12 10:31:07;;;;;;;1.13;0.53;;;;;;;8.08;100.00;97771.97;15277045;19;20043;-56
2023/01/12 10:36:32;;;;;;;0.80;0.40;;;;;;;8.09;100.00;97779.03;15285080;19;20033;-60
2023/01/12 10:47:56;;;;;;;0.88;0.30;;;;;;;8.05;100.00;97760.75;15280759;19;20051;-58
2023/01/12 10:53:31;;;;;;;0.73;0.38;;;;;;;7.99;100.00;97784.50;15287030;19;20070;-60
2023/01/12 10:59:05;;;;;;;0.25;0.20;;;;;;;7.92;100.00;97759.34;15282401;19;20018;-61
2023/01/12 11:04:31;;;;;;;0.80;0.20;;;;;;;7.88;100.00;97763.34;15271294;19;20479;-60
2023/01/12 11:09:57;;;;;;;0.88;0.30;;;;;;;7.87;100.00;97758.97;15281318;19;20018;-60
2023/01/12 11:15:25;;;;;;;0.75;0.15;;;;;;;7.87;100.00;97750.94;15280377;19;20039;-60
2023/01/12 11:20:56;;;;;;;0.80;0.30;;;;;;;7.89;100.00;97750.75;15278023;19;20483;-58
2023/01/12 11:26:31;;;;;;;1.02;0.28;;;;;;;7.94;100.00;97751.13;15274177;19;20414;-59
2023/01/12 11:32:03;;;;;;;0.50;0.30;;;;;;;8.02;100.00;97727.00;15283268;19;20053;-61
2023/01/12 11:37:27;;;;;;;0.10;0.10;;;;;;;8.08;100.00;97757.72;15270098;19;20491;-60
2023/01/12 11:48:42;;;;;;;0.50;0.30;;;;;;;8.17;100.00;97722.72;15277446;19;20030;-61
2023/01/12 11:54:11;;;;;;;0.52;0.20;;;;;;;8.18;100.00;97724.41;15280265;19;21055;-59
2023/01/12 11:59:45;;;;;;;0.30;0.20;;;;;;;8.20;100.00;97716.16;15278284;19;20021;-61
2023/01/12 12:05:29;;;;;;;0.60;0.20;;;;;;;8.21;100.00;97715.16;15278477;19;20028;-62
2023/01/12 12:11:00;;;;;;;0.10;0.10;;;;;;;8.29;100.00;97700.94;15267392;19;20082;-58
2023/01/12 12:16:32;;;;;;;0.32;0.20;;;;;;;8.32;100.00;97722.09;15275771;19;20029;-60
2023/01/12 12:22:10;;;;;;;0.20;0.10;;;;;;;8.39;100.00;97701.63;15278172;19;20057;-61
2023/01/12 12:27:57;;;;;;;0.32;0.20;;;;;;;8.40;100.00;97697.94;15275852;19;20074;-61
2023/01/12 12:33:32;;;;;;;0.38;0.10;;;;;;;8.42;100.00;97695.06;15279407;19;20074;-61
2023/01/12 12:39:34;;;;;;;0.10;0.10;;;;;;;8.43;100.00;97707.50;15275899;19;20018;-61
2023/01/12 12:50:48;;;;;;;2.17;0.20;;;;;;;8.53;100.00;97692.09;15289303;19;20085;-60
2023/01/12 12:56:19;;;;;;;0.30;0.30;;;;;;;8.49;100.00;97712.25;15291423;19;20025;-61
2023/01/12 13:01:45;;;;;;;0.40;0.30;;;;;;;8.43;100.00;97699.44;15287292;19;20078;-58
2023/01/12 13:07:14;;;;;;;0.50;0.30;;;;;;;8.37;100.00;97702.81;15289366;19;20018;-58
2023/01/12 13:12:43;;;;;;;2.20;0.20;;;;;;;8.36;100.00;97695.75;15276750;19;20516;-62
2023/01/12 13:19:11;;;;;;;0.10;0.10;;;;;;;8.36;100.00;97706.50;15288631;19;20026;-62
2023/01/12 13:24:57;;;;;;;0.73;0.30;;;;;;;8.37;100.00;97708.16;15280558;19;20010;-60
2023/01/12 13:30:41;;;;;;;0.10;0.10;;;;;;;8.41;100.00;97678.16;15287453;19;20006;-60
2023/01/12 13:36:19;;;;;;;0.32;0.10;;;;;;;8.44;100.00;97682.34;15289335;19;20018;-60
2023/01/12 13:47:36;;;;;;;0.93;0.20;;;;;;;8.53;100.00;97692.09;15273560;19;20017;-60
2023/01/12 13:53:09;;;;;;;0.25;0.17;;;;;;;8.57;100.00;97698.81;15288934;19;20025;-60
2023/01/12 13:58:41;;;;;;;0.50;0.20;;;;;;;8.58;100.00;97705.88;15286081;19;20041;-58
2023/01/12 14:04:29;;;;;;;0.47;0.20;;;;;;;8.64;100.00;97688.25;15287872;19;20018;-60
2023/01/12 14:10:05;;;;;;;0.45;0.20;;;;;;;8.67;100.00;97697.81;15283607;19;20365;-61
2023/01/12 14:21:28;;;;;;;0.63;0.30;;;;;;;8.63;100.00;97703.56;15268592;19;20014;-60
2023/01/12 14:27:00;;;;;;;1.00;0.30;;;;;;;8.66;100.00;97723.00;15282040;19;20011;-58
2023/01/12 14:32:26;;;;;;;0.40;0.20;;;;;;;8.69;100.00;97717.28;15287309;19;20043;-61
2023/01/12 14:37:58;;;;;;;1.00;0.40;;;;;;;8.68;100.00;97715.63;15283865;19;20948;-58
2023/01/12 14:49:25;;;;;;;0.52;0.40;;;;;;;8.75;100.00;97712.09;15278878;19;20018;-60
2023/01/12 14:54:52;;;;;;;1.52;0.50;;;;;;;8.74;100.00;97741.81;15282593;19;20072;-60
2023/01/12 15:00:29;;;;;;;0.55;0.28;;;;;;;8.72;100.00;97727.72;15283365;19;20442;-59
2023/01/12 15:05:54;;;;;;;0.63;0.30;;;;;;;8.76;100.00;97718.31;15282215;19;20082;-58
2023/01/12 15:11:22;;;;;;;0.68;0.38;;;;;;;8.71;100.00;97716.13;15279678;19;20014;-60
2023/01/12 15:28:10;;;;;;;0.88;0.52;;;;;;;8.69;100.00;97738.78;15279064;19;20034;-59
2023/01/12 15:33:34;;;;;;;0.93;0.40;;;;;;;8.66;100.00;97744.47;15282518;19;20042;-60
2023/01/12 15:38:59;;;;;;;0.65;0.22;;;;;;;8.70;100.00;97735.09;15278998;19;20026;-61
2023/01/12 15:44:26;;;;;;;0.85;0.30;;;;;;;8.71;100.00;97742.16;15271565;19;20015;-62
2023/01/12 15:49:53;;;;;;;0.90;0.30;;;;;;;8.70;100.00;97740.47;15276673;19;20085;-61
2023/01/12 15:55:20;;;;;;;1.00;0.20;;;;;;;8.68;100.00;97745.16;15265473;19;20023;-61
2023/01/12 16:00:48;;;;;;;0.52;0.20;;;;;;;8.70;100.00;97727.84;15275910;19;20014;-62
2023/01/12 16:06:13;;;;;;;0.40;0.30;;;;;;;8.70;100.00;97717.13;15276956;19;20074;-60
2023/01/12 16:11:38;;;;;;;0.90;0.40;;;;;;;8.71;100.00;97726.03;15275827;19;20034;-62
2023/01/12 16:17:05;;;;;;;0.38;0.28;;;;;;;8.70;100.00;97735.09;15276471;19;20021;-62
2023/01/12 16:22:32;;;;;;;0.63;0.28;;;;;;;8.69;100.00;97744.16;15280736;19;20086;-60
2023/01/12 16:28:05;;;;;;;0.60;0.40;;;;;;;8.68;100.00;97747.84;15264782;19;20711;-61
2023/01/12 16:33:32;;;;;;;0.38;0.30;;;;;;;8.63;100.00;97741.13;15278166;19;20019;-61
2023/01/12 16:38:59;;;;;;;0.45;0.38;;;;;;;8.68;100.00;97740.63;15276433;19;20078;-60
2023/01/12 16:44:23;;;;;;;0.52;0.20;;;;;;;8.67;100.00;97741.66;15279000;19;20471;-58
2023/01/12 16:49:51;;;;;;;0.40;0.30;;;;;;;8.63;100.00;97737.59;15274603;19;20019;-59
2023/01/12 16:55:15;;;;;;;0.30;0.30;;;;;;;8.63;100.00;97730.41;15274486;19;20160;-59
2023/01/12 17:00:40;;;;;;;0.20;0.20;;;;;;;8.56;100.00;97734.72;15263391;19;20042;-61
2023/01/12 17:06:09;;;;;;;0.22;0.22;;;;;;;8.55;100.00;97741.09;15275411;19;20074;-60
2023/01/12 17:11:34;;;;;;;0.30;0.30;;;;;;;8.58;100.00;97738.09;15272191;19;20022;-60
2023/01/12 17:17:01;;;;;;;0.40;0.20;;;;;;;8.59;100.00;97729.03;15272992;19;20021;-60
2023/01/12 17:22:30;;;;;;;0.60;0.30;;;;;;;8.59;100.00;97706.72;15281377;19;20022;-60
2023/01/12 17:28:03;;;;;;;0.45;0.40;;;;;;;8.63;100.00;97713.44;15279388;19;20850;-61
2023/01/12 17:33:28;;;;;;;0.40;0.20;;;;;;;8.63;100.00;97724.19;15278971;19;20369;-59
2023/01/12 17:38:55;;;;;;;0.30;0.30;;;;;;;8.67;100.00;97708.56;15284186;19;20829;-61
2023/01/12 17:44:20;;;;;;;0.40;0.20;;;;;;;8.70;100.00;97719.81;15285495;19;20070;-59
2023/01/12 17:49:46;;;;;;;0.40;0.22;;;;;;;8.71;100.00;97704.56;15284293;19;20469;-59
2023/01/12 17:55:14;;;;;;;0.28;0.25;;;;;;;8.68;100.00;97708.41;15285804;19;20014;-61
2023/01/12 18:00:40;;;;;;;0.30;0.30;;;;;;;8.75;100.00;97701.34;15282282;19;20028;-60
2023/01/12 18:06:05;;;;;;;0.30;0.20;;;;;;;8.76;100.00;97705.72;15273144;19;20018;-60
2023/01/12 18:11:45;;;;;;;0.30;0.30;;;;;;;8.77;100.00;97693.13;15282511;19;20030;-59
2023/01/12 18:17:10;;;;;;;0.20;0.20;;;;;;;8.75;100.00;97701.34;15286444;19;20032;-61
2023/01/12 18:22:34;;;;;;;0.20;0.20;;;;;;;8.62;100.00;97717.97;15281784;19;20018;-61
2023/01/12 18:28:08;;;;;;;0.25;0.20;;;;;;;8.54;100.00;97727.84;15276449;19;20018;-60
2023/01/12 18:33:33;;;;;;;0.30;0.30;;;;;;;8.46;100.00;97718.78;15281407;19;20025;-61
2023/01/12 18:38:58;;;;;;;0.13;0.13;;;;;;;8.47;100.00;97698.13;15269668;19;20017;-60
2023/01/12 18:44:26;;;;;;;0.20;0.20;;;;;;;8.45;100.00;97700.97;15281529;19;20026;-62
2023/01/12 18:49:53;;;;;;;0.30;0.30;;;;;;;8.48;100.00;97681.03;15280240;19;20018;-60
2023/01/12 18:55:18;;;;;;;0.65;0.30;;;;;;;8.56;100.00;97691.78;15282567;19;20078;-60
2023/01/12 19:00:45;;;;;;;0.40;0.22;;;;;;;8.62;100.00;97693.81;15278718;19;20030;-59
2023/01/12 19:06:22;;;;;;;0.13;0.13;;;;;;;8.63;100.00;97690.13;15282870;19;20024;-60
2023/01/12 19:11:48;;;;;;;0.32;0.32;;;;;;;8.69;100.00;97679.69;15275659;19;20728;-55
2023/01/12 19:17:31;;;;;;;0.30;0.25;;;;;;;8.74;100.00;97688.09;15280942;19;20023;-58
2023/01/12 19:28:42;;;;;;;0.20;0.20;;;;;;;8.87;100.00;97666.09;15279177;19;20098;-61
2023/01/12 19:34:09;;;;;;;0.13;0.13;;;;;;;8.86;100.00;97670.66;15283402;19;20021;-60
2023/01/12 19:39:49;;;;;;;0.10;0.10;;;;;;;8.93;100.00;97671.63;15269938;19;20039;-61
2023/01/12 19:45:18;;;;;;;0.43;0.20;;;;;;;8.95;100.00;97668.78;15280753;19;20025;-62
2023/01/12 19:50:46;;;;;;;0.50;0.20;;;;;;;8.97;100.00;97666.75;15275493;19;20022;-60
2023/01/12 19:56:11;;;;;;;1.17;0.20;;;;;;;9.00;100.00;97653.00;15280993;19;20798;-59
2023/01/12 20:01:36;;;;;;;0.35;0.30;;;;;;;9.03;100.00;97659.88;15274542;19;20030;-62
2023/01/12 20:07:03;;;;;;;0.38;0.15;;;;;;;9.03;100.00;97662.56;15275398;19;20077;-60
2023/01/12 20:12:28;;;;;;;0.35;0.20;;;;;;;9.02;100.00;97653.66;15264425;19;20014;-62
2023/01/12 20:17:55;;;;;;;0.20;0.20;;;;;;;9.04;100.00;97646.28;15276674;19;20396;-62
2023/01/12 20:23:23;;;;;;;0.20;0.10;;;;;;;9.07;100.00;97651.28;15278373;19;20825;-62
2023/01/12 20:28:47;;;;;;;0.15;0.10;;;;;;;9.06;100.00;97648.78;15276592;19;20014;-62
2023/01/12 20:34:12;;;;;;;0.38;0.20;;;;;;;9.03;100.00;97643.75;15276104;19;20348;-62
2023/01/12 20:39:39;;;;;;;0.47;0.20;;;;;;;8.99;100.00;97637.88;15274665;19;20014;-61
2023/01/12 20:45:04;;;;;;;1.10;0.10;;;;;;;9.00;100.00;97642.25;15261553;19;20050;-62
2023/01/12 20:50:29;;;;;;;1.02;0.30;;;;;;;8.98;100.00;97624.63;15273004;19;20027;-60
2023/01/12 20:55:58;;;;;;;0.22;0.20;;;;;;;8.97;100.00;97618.41;15276871;19;20018;-61
2023/01/12 21:01:23;;;;;;;0.20;0.10;;;;;;;8.96;100.00;97622.09;15269949;19;20014;-62
2023/01/12 21:06:50;;;;;;;0.40;0.13;;;;;;;8.97;100.00;97613.03;15291083;19;20022;-61
2023/01/12 21:12:18;;;;;;;0.38;0.10;;;;;;;8.94;100.00;97616.91;15285266;19;20018;-61
2023/01/12 21:17:44;;;;;;;0.20;0.17;;;;;;;9.06;100.00;97633.50;15277004;19;20026;-62
2023/01/12 21:23:10;;;;;;;0.43;0.20;;;;;;;9.04;100.00;97638.22;15289765;19;20500;-62
2023/01/12 21:28:45;;;;;;;0.13;0.10;;;;;;;9.08;100.00;97615.34;15283085;19;20018;-58
2023/01/12 21:34:10;;;;;;;0.82;0.20;;;;;;;9.09;100.00;97616.22;15282945;19;20097;-61
2023/01/12 21:39:34;;;;;;;0.35;0.10;;;;;;;9.10;100.00;97596.41;15286653;19;20074;-60
2023/01/12 21:45:01;;;;;;;0.30;0.10;;;;;;;9.06;100.00;97578.94;15285077;19;20018;-60
2023/01/12 21:50:27;;;;;;;0.10;0.10;;;;;;;9.01;100.00;97579.44;15272733;19;20074;-59
2023/01/12 21:55:56;;;;;;;1.85;0.10;;;;;;;8.99;100.00;97581.47;15285374;19;20392;-59
2023/01/12 22:01:23;;;;;;;0.10;0.10;;;;;;;8.97;100.00;97578.09;15282058;19;20037;-59
2023/01/12 22:06:48;;;;;;;0.52;0.20;;;;;;;8.96;100.00;97591.72;15265459;19;20070;-62
2023/01/12 22:12:13;;;;;;;0.20;0.20;;;;;;;8.92;100.00;97581.31;15283511;19;20027;-61
2023/01/12 22:17:40;;;;;;;0.70;0.43;;;;;;;8.93;100.00;97580.31;15286428;19;20022;-62
2023/01/12 22:23:05;;;;;;;0.40;0.30;;;;;;;8.94;100.00;97575.75;15279293;19;20006;-61
2023/01/12 22:28:36;;;;;;;1.10;0.30;;;;;;;8.93;100.00;97569.56;15284181;19;20025;-62
2023/01/12 22:34:05;;;;;;;0.20;0.20;;;;;;;8.95;100.00;97577.44;15282745;19;20513;-59
2023/01/12 22:39:30;;;;;;;1.17;0.30;;;;;;;8.99;100.00;97570.72;15282360;19;20026;-59
2023/01/12 22:45:01;;;;;;;0.30;0.30;;;;;;;8.99;100.00;97604.81;15285513;19;20022;-59
2023/01/12 22:50:28;;;;;;;0.63;0.30;;;;;;;8.97;100.00;97569.22;15280879;19;20364;-59
2023/01/12 22:55:53;;;;;;;0.35;0.20;;;;;;;8.93;100.00;97558.81;15273939;19;20014;-60
2023/01/12 23:01:19;;;;;;;0.22;0.20;;;;;;;8.90;100.00;97559.16;15281174;19;20035;-60
2023/01/12 23:06:47;;;;;;;0.35;0.20;;;;;;;8.91;100.00;97570.75;15283513;19;20018;-61
2023/01/12 23:12:12;;;;;;;0.28;0.10;;;;;;;8.91;100.00;97557.31;15282807;19;20034;-61
2023/01/12 23:17:36;;;;;;;0.40;0.20;;;;;;;8.98;100.00;97538.66;15280655;19;20359;-60
2023/01/12 23:23:03;;;;;;;0.30;0.20;;;;;;;8.98;100.00;97546.72;15280035;19;20717;-60
2023/01/12 23:28:35;;;;;;;0.22;0.10;;;;;;;8.95;100.00;97542.50;15265116;19;20014;-61
2023/01/12 23:34:01;;;;;;;0.28;0.20;;;;;;;8.97;100.00;97539.69;15279368;19;20031;-61
2023/01/12 23:39:29;;;;;;;0.10;0.10;;;;;;;8.94;100.00;97528.25;15280572;19;20054;-62
2023/01/12 23:44:54;;;;;;;0.73;0.20;;;;;;;8.89;100.00;97525.25;15281310;19;20025;-63
2023/01/12 23:50:20;;;;;;;0.52;0.20;;;;;;;8.88;100.00;97515.50;15277612;19;20025;-62
2023/01/12 23:55:47;;;;;;;1.70;0.15;;;;;;;8.81;100.00;97517.22;15280885;19;20017;-62
